Dades meteomassalio
Diari Summary for Gener 10, 2018 Units:  Metric    English   Both
« Previous Day
Next Day »
Diari Semanal Mensual Anual Personalitzat
  Maxima: Minima: Mijana:
Temperatura: -17.8 °C -16.2 °C -12.8 °C
Rosada: -17.8 °C -17.8 °C -15.7 °C
Humitat: Humidity % 60 % 68 %
Velocitat del vent: 0 km/h 0 km/h 16.9 km/h
Racha vent: 0 km/h - -
Vent:- - SW
Pressio: 0 hPa 34476.3 hPa -
Pluja: 12.7 mm    
Historical Graphs
 
 
Tabular Data for Gener 10, 2018
Time Temperature Dew Point Pressure Wind Wind Speed Wind Gust Humidity Rainfall Rate (Hourly) solar Conditions
-17.8 °C -17.8 °C 0 hPa Calm     Humidity % 0 mm SolarRadiationWatts/m^2 W/m2 Conditions
00:04 -16.2 °C -17.1 °C 34601.5 hPa Calm     89 % 0 mm 0.0 W/m2 RA
00:12 -15.9 °C -16.8 °C 34601.5 hPa Calm     89 % 0 mm 0.0 W/m2 CLR
00:16 -15.9 °C -16.8 °C 34591.4 hPa Calm     89 % 0 mm 0.0 W/m2 CLR
00:26 -15.9 °C -16.8 °C 34591.4 hPa Calm     90 % 0 mm 0.0 W/m2 CLR
00:51 -15.9 °C -16.8 °C 34591.4 hPa Calm     90 % 0 mm 0.0 W/m2 RA
13:55 -11 °C -14.2 °C 34496.6 hPa North 41.7 km/h 41.7 km/h 68 % 0 mm 436.0 W/m2 CLR
14:07 -10.7 °C -14.1 °C 34486.4 hPa NNW 32.8 km/h 32.8 km/h 66 % 0 mm 425.0 W/m2 CLR
14:41 -11.3 °C -14.2 °C 34486.4 hPa North 26.9 km/h 26.9 km/h 70 % 0 mm 461.0 W/m2 CLR
14:46 -11 °C -13.9 °C 34486.4 hPa North 23.8 km/h 23.8 km/h 70 % 0 mm 475.0 W/m2 CLR
14:51 -11 °C -13.9 °C 34486.4 hPa NNE 26.9 km/h 26.9 km/h 70 % 0 mm 406.0 W/m2 CLR
14:56 -11 °C -14.1 °C 34486.4 hPa NNE 32.8 km/h 32.8 km/h 69 % 0 mm 70.0 W/m2 CLR
15:04 -11.6 °C -14.7 °C 34496.6 hPa North 35.7 km/h 35.7 km/h 69 % 0 mm 47.0 W/m2 FEW
15:10 -11.9 °C -14.8 °C 34496.6 hPa North 31.1 km/h 31.1 km/h 70 % 0 mm 111.0 W/m2 FEW
15:16 -11.9 °C -14.7 °C 34496.6 hPa NNE 26.9 km/h 26.9 km/h 71 % 0 mm 149.0 W/m2 CLR
15:22 -11.9 °C -14.7 °C 34510.1 hPa NNE 23.3 km/h 23.3 km/h 71 % 0 mm 130.0 W/m2 CLR
15:27 -11.9 °C -14.7 °C 34510.1 hPa NNE 26.9 km/h 26.9 km/h 71 % 0 mm 111.0 W/m2 CLR
15:38 -11.9 °C -14.7 °C 34496.6 hPa NE 23.3 km/h 23.3 km/h 71 % 0 mm 139.0 W/m2 CLR
15:46 -11.9 °C -14.6 °C 34510.1 hPa NNE 6 km/h 6 km/h 72 % 0 mm 141.0 W/m2 CLR
15:53 -11.9 °C -14.6 °C 34510.1 hPa NNW 9 km/h 9 km/h 72 % 0 mm 178.0 W/m2 CLR
16:03 -11.6 °C -14.4 °C 34510.1 hPa NNW 26.9 km/h 26.9 km/h 71 % 0 mm 105.0 W/m2 CLR
16:08 -11.9 °C -14.8 °C 34510.1 hPa North 29.8 km/h 29.8 km/h 70 % 0 mm 135.0 W/m2 CLR
16:15 -11.9 °C -14.7 °C 34510.1 hPa North 17.9 km/h 17.9 km/h 71 % 0 mm 155.0 W/m2 CLR
16:20 -11.9 °C -14.7 °C 34510.1 hPa Calm     71 % 0 mm 98.0 W/m2 CLR
16:28 -11.9 °C -14.7 °C 34510.1 hPa Calm     71 % 0 mm 142.0 W/m2 CLR
16:35 -11.9 °C -14.9 °C 34510.1 hPa NW 6 km/h 6 km/h 69 % 0 mm 91.0 W/m2 CLR
16:47 -11.9 °C -14.9 °C 34496.6 hPa Calm     69 % 0 mm 67.0 W/m2 FEW
16:58 -12.2 °C -15.7 °C 34486.4 hPa NW 20.9 km/h 20.9 km/h 65 % 0 mm 67.0 W/m2 FEW
17:07 -11.9 °C -16.1 °C 34496.6 hPa West 49.2 km/h 49.2 km/h 60 % 0 mm 42.0 W/m2 BKN
17:20 -11.9 °C -16.1 °C 34496.6 hPa NW 31.1 km/h 31.1 km/h 60 % 0 mm 21.0 W/m2 BKN
17:26 -11.9 °C -16.1 °C 34496.6 hPa NW 35.7 km/h 35.7 km/h 60 % 0 mm 16.0 W/m2 BKN
17:38 -12.2 °C -16.2 °C 34486.4 hPa WNW 29.8 km/h 29.8 km/h 61 % 0 mm 7.0 W/m2 BKN
17:44 -12.2 °C -16.2 °C 34486.4 hPa NW 29.8 km/h 29.8 km/h 61 % 0 mm 0.0 W/m2 OVC
17:51 -12.2 °C -16.2 °C 34486.4 hPa NNW 23.8 km/h 23.8 km/h 61 % 0 mm 0.0 W/m2 OVC
18:04 -12.8 °C -16.4 °C 34486.4 hPa NW 15 km/h 15 km/h 64 % 0 mm 0.0 W/m2 CLR
18:09 -12.8 °C -16.4 °C 34486.4 hPa NW 3.1 km/h 3.1 km/h 64 % 0 mm 0.0 W/m2 CLR
18:19 -13.4 °C -17 °C 34486.4 hPa Calm     64 % 0 mm 0.0 W/m2 CLR
18:28 -13.8 °C -17.3 °C 34486.4 hPa WNW 17.9 km/h 17.9 km/h 64 % 0 mm 0.0 W/m2 CLR
18:37 -13.8 °C -17.2 °C 34476.3 hPa NW 5.1 km/h 5.1 km/h 65 % 0 mm 0.0 W/m2 CLR
18:47 -14.1 °C -17.4 °C 34476.3 hPa NW 6 km/h 6 km/h 65 % 0 mm 0.0 W/m2 CLR
18:53 -14.1 °C -17.4 °C 34476.3 hPa NNW 5.1 km/h 5.1 km/h 65 % 0 mm 0.0 W/m2 CLR
18:59 -14.1 °C -17.3 °C 34476.3 hPa NW 6 km/h 6 km/h 66 % 0 mm 0.0 W/m2 CLR
19:06 -14.4 °C -17.8 °C 34476.3 hPa Calm     65 % 0 mm 0.0 W/m2 CLR
Lo Temps de Massalio
Compliments of Weather Underground - 512 kb